Авиационная погода в Алматы

Регион: 
Погода METAR: 
UAAA 271200Z VRB01MPS 9999 BKN050 OVC100 M04/M11 Q1026 R88/CLRD65 NOSIG
Время наблюдения
2021-02-27T12:00:00Z
Температура C
-4.0
Точка росы
-11.0
Направление ветра
0
Скорость ветра (узлы)
2
Метео видимость
6.21
Явления погоды
Условия полета
VFR
Аэропорт подробнее: